createdAt,value
2017-06-18T00:00:43.149Z,55.48
2017-06-18T00:03:10.655Z,55.56
2017-06-18T00:05:38.159Z,55.70
2017-06-18T00:08:05.709Z,55.56
2017-06-18T00:10:33.216Z,56.16
2017-06-18T00:13:00.762Z,55.97
2017-06-18T00:15:28.332Z,55.84
2017-06-18T00:17:55.845Z,55.75
2017-06-18T00:20:23.346Z,55.92
2017-06-18T00:22:51.078Z,55.85
2017-06-18T00:25:18.612Z,56.11
2017-06-18T00:27:46.123Z,55.88
2017-06-18T00:30:13.792Z,56.55
2017-06-18T00:32:42.646Z,56.58
2017-06-18T00:35:10.165Z,56.29
2017-06-18T00:37:37.758Z,56.57
2017-06-18T00:40:05.264Z,56.98
2017-06-18T00:42:32.821Z,56.90
2017-06-18T00:45:00.386Z,56.40
2017-06-18T00:47:27.880Z,56.36
2017-06-18T00:49:55.387Z,57.14
2017-06-18T00:52:22.968Z,56.67
2017-06-18T00:54:50.495Z,57.33
2017-06-18T00:57:18.056Z,57.71
2017-06-18T00:59:45.604Z,56.96
2017-06-18T01:02:13.153Z,57.08
2017-06-18T01:04:40.737Z,57.10
2017-06-18T01:07:08.246Z,57.35
2017-06-18T01:09:35.777Z,57.21
2017-06-18T01:12:03.297Z,58.02
2017-06-18T01:14:30.857Z,58.14
2017-06-18T01:16:58.456Z,57.91
2017-06-18T01:19:26.022Z,58.06
2017-06-18T01:21:53.542Z,58.20
2017-06-18T01:24:21.090Z,58.08
2017-06-18T01:26:48.607Z,58.24
2017-06-18T01:29:16.101Z,57.53
2017-06-18T01:31:43.662Z,58.20
2017-06-18T01:34:11.479Z,57.64
2017-06-18T01:36:38.991Z,57.67
2017-06-18T01:39:06.560Z,57.50
2017-06-18T01:41:34.062Z,57.14
2017-06-18T01:44:01.689Z,57.50
2017-06-18T01:46:29.240Z,57.48
2017-06-18T01:48:56.789Z,57.44
2017-06-18T01:51:24.294Z,57.45
2017-06-18T01:53:52.003Z,57.59
2017-06-18T01:56:19.820Z,57.68
2017-06-18T01:58:47.324Z,57.64
2017-06-18T02:01:14.857Z,57.39
2017-06-18T02:03:42.427Z,57.66
2017-06-18T02:06:09.944Z,57.47
2017-06-18T02:08:37.481Z,57.94
2017-06-18T02:11:05.068Z,58.35
2017-06-18T02:13:32.618Z,58.31
2017-06-18T02:16:00.218Z,58.31
2017-06-18T02:18:27.749Z,58.49
2017-06-18T02:20:55.265Z,58.59
2017-06-18T02:23:22.813Z,58.79
2017-06-18T02:25:50.338Z,58.47
2017-06-18T02:28:17.901Z,58.44
2017-06-18T02:30:45.464Z,59.08
2017-06-18T02:33:12.986Z,58.39
2017-06-18T02:35:40.509Z,58.18
2017-06-18T02:38:08.051Z,58.59
2017-06-18T02:40:35.573Z,57.96
2017-06-18T02:43:03.072Z,57.80
2017-06-18T02:45:30.660Z,57.57
2017-06-18T02:47:58.187Z,57.58
2017-06-18T02:50:25.749Z,57.39
2017-06-18T02:52:53.291Z,57.79
2017-06-18T02:55:20.789Z,58.17
2017-06-18T02:57:48.617Z,57.96
2017-06-18T03:00:16.290Z,57.81
2017-06-18T03:02:43.784Z,57.68
2017-06-18T03:05:11.309Z,58.83
2017-06-18T03:07:38.848Z,58.87
2017-06-18T03:10:18.254Z,59.24
2017-06-18T03:12:45.772Z,60.06
2017-06-18T03:15:13.261Z,59.51
2017-06-18T03:17:40.770Z,59.66
2017-06-18T03:20:08.310Z,60.10
2017-06-18T03:22:35.841Z,59.86
2017-06-18T03:25:03.353Z,60.01
2017-06-18T03:27:30.959Z,60.42
2017-06-18T03:29:58.483Z,60.75
2017-06-18T03:32:26.006Z,60.61
2017-06-18T03:34:53.529Z,60.56
2017-06-18T03:37:21.032Z,60.67
2017-06-18T03:39:48.579Z,59.97
2017-06-18T03:42:16.081Z,60.02
2017-06-18T03:44:43.580Z,59.90
2017-06-18T03:47:11.107Z,60.01
2017-06-18T03:49:38.641Z,60.53
2017-06-18T03:52:06.194Z,60.49
2017-06-18T03:54:33.989Z,59.88
2017-06-18T03:57:01.548Z,59.92
2017-06-18T03:59:29.061Z,60.60
2017-06-18T04:01:56.620Z,60.50
2017-06-18T04:04:24.174Z,60.87
2017-06-18T04:06:51.706Z,60.36
2017-06-18T04:09:19.261Z,60.97
2017-06-18T04:11:46.761Z,60.53
2017-06-18T04:14:14.284Z,60.87
2017-06-18T04:16:41.837Z,60.68
2017-06-18T04:19:09.341Z,61.21
2017-06-18T04:21:36.858Z,61.39
2017-06-18T04:24:04.396Z,61.44
2017-06-18T04:26:31.931Z,62.12
2017-06-18T04:28:59.430Z,62.05
2017-06-18T04:31:27.025Z,61.65
2017-06-18T04:33:54.557Z,61.35
2017-06-18T04:36:22.192Z,61.01
2017-06-18T04:38:49.737Z,61.14
2017-06-18T04:41:17.272Z,61.66
2017-06-18T04:43:44.771Z,60.97
2017-06-18T04:46:12.346Z,61.63
2017-06-18T04:48:39.841Z,61.09
2017-06-18T04:51:07.348Z,61.84
2017-06-18T04:53:34.943Z,62.15
2017-06-18T04:56:02.484Z,62.03
2017-06-18T04:58:29.987Z,62.81
2017-06-18T05:00:57.570Z,62.03
2017-06-18T05:03:25.072Z,61.22
2017-06-18T05:05:52.634Z,60.32
2017-06-18T05:08:20.242Z,61.51
2017-06-18T05:10:47.794Z,61.91
2017-06-18T05:13:15.354Z,62.97
2017-06-18T05:15:42.938Z,62.28
2017-06-18T05:18:10.442Z,63.03
2017-06-18T05:20:37.968Z,61.67
2017-06-18T05:23:05.528Z,62.75
2017-06-18T05:25:33.035Z,62.55
2017-06-18T05:28:00.533Z,63.37
2017-06-18T05:30:28.197Z,63.30
2017-06-18T05:32:55.758Z,62.97
2017-06-18T05:35:23.264Z,62.55
2017-06-18T05:37:50.816Z,62.92
2017-06-18T05:40:18.329Z,62.63
2017-06-18T05:42:45.827Z,63.18
2017-06-18T05:45:13.357Z,63.42
2017-06-18T05:47:40.870Z,63.11
2017-06-18T05:50:08.409Z,62.68
2017-06-18T05:52:35.996Z,63.01
2017-06-18T05:55:03.567Z,61.92
2017-06-18T05:57:31.081Z,62.38
2017-06-18T05:59:58.708Z,62.22
2017-06-18T06:02:26.266Z,63.61
2017-06-18T06:04:53.778Z,62.71
2017-06-18T06:07:21.276Z,62.67
2017-06-18T06:09:48.842Z,63.15
2017-06-18T06:12:16.422Z,63.35
2017-06-18T06:14:43.941Z,62.76
2017-06-18T06:17:11.561Z,63.34
2017-06-18T06:19:40.422Z,62.77
2017-06-18T06:22:08.292Z,62.53
2017-06-18T06:24:35.835Z,62.89
2017-06-18T06:27:03.381Z,62.40
2017-06-18T06:29:30.893Z,61.88
2017-06-18T06:31:58.439Z,61.88
2017-06-18T06:34:25.973Z,62.26
2017-06-18T06:36:53.473Z,61.74
2017-06-18T06:39:21.004Z,62.35
2017-06-18T06:41:48.505Z,63.27
2017-06-18T06:44:16.008Z,62.12
2017-06-18T06:46:43.614Z,62.66
2017-06-18T06:49:11.176Z,62.51
2017-06-18T06:51:44.227Z,62.41
2017-06-18T06:54:12.995Z,61.31
2017-06-18T06:56:40.529Z,60.19
2017-06-18T06:59:08.065Z,60.90
2017-06-18T07:01:35.600Z,61.42
2017-06-18T07:04:03.105Z,60.93
2017-06-18T07:06:30.692Z,61.69
2017-06-18T07:08:58.313Z,62.40
2017-06-18T07:11:25.825Z,62.23
2017-06-18T07:13:54.380Z,61.09
2017-06-18T07:16:22.180Z,60.81
2017-06-18T07:18:49.707Z,61.49
2017-06-18T07:21:17.458Z,61.96
2017-06-18T07:23:44.994Z,62.31
2017-06-18T07:26:12.551Z,62.34
2017-06-18T07:28:40.059Z,61.76
2017-06-18T07:31:07.619Z,61.06
2017-06-18T07:33:35.144Z,61.23
2017-06-18T07:36:02.698Z,61.79
2017-06-18T07:38:30.253Z,60.87
2017-06-18T07:40:57.807Z,60.89
2017-06-18T07:43:25.381Z,61.46
2017-06-18T07:45:52.926Z,61.90
2017-06-18T07:48:20.437Z,61.95
2017-06-18T07:50:48.011Z,62.04
2017-06-18T07:53:15.543Z,62.21
2017-06-18T07:55:43.045Z,61.16
2017-06-18T07:58:10.535Z,61.07
2017-06-18T08:00:38.074Z,61.71
2017-06-18T08:03:05.594Z,61.03
2017-06-18T08:05:33.097Z,61.21
2017-06-18T08:08:00.715Z,60.64
2017-06-18T08:10:28.279Z,60.54
2017-06-18T08:12:55.871Z,59.86
2017-06-18T08:15:23.486Z,60.66
2017-06-18T08:17:51.071Z,60.52
2017-06-18T08:20:18.615Z,60.79
2017-06-18T08:22:46.202Z,60.10
2017-06-18T08:25:13.730Z,60.12
2017-06-18T08:27:41.254Z,60.01
2017-06-18T08:30:09.009Z,59.59
2017-06-18T08:32:36.528Z,59.48
2017-06-18T08:35:04.038Z,58.77
2017-06-18T08:37:31.617Z,58.22
2017-06-18T08:39:59.117Z,56.90
2017-06-18T08:42:26.677Z,58.04
2017-06-18T08:44:54.292Z,58.31
2017-06-18T08:47:21.795Z,58.54
2017-06-18T08:49:49.353Z,57.53
2017-06-18T08:52:16.913Z,57.58
2017-06-18T08:54:44.443Z,57.57
2017-06-18T08:57:11.957Z,57.74
2017-06-18T08:59:39.521Z,58.28
2017-06-18T09:02:10.472Z,59.54
2017-06-18T09:04:38.337Z,59.81
2017-06-18T09:07:05.909Z,59.42
2017-06-18T09:09:34.764Z,59.29
2017-06-18T09:12:02.361Z,59.52
2017-06-18T09:14:29.922Z,59.73
2017-06-18T09:16:57.532Z,59.42
2017-06-18T09:19:25.115Z,58.72
2017-06-18T09:21:52.635Z,58.86
2017-06-18T09:24:20.261Z,57.58
2017-06-18T09:26:47.829Z,58.30
2017-06-18T09:29:15.356Z,57.26
2017-06-18T09:31:42.888Z,58.32
2017-06-18T09:34:10.405Z,58.19
2017-06-18T09:36:37.910Z,57.66
2017-06-18T09:39:05.470Z,56.50
2017-06-18T09:41:33.053Z,58.12
2017-06-18T09:44:01.266Z,57.99
2017-06-18T09:46:28.800Z,58.21
2017-06-18T09:48:56.316Z,58.03
2017-06-18T09:51:23.829Z,57.79
2017-06-18T09:53:51.704Z,58.04
2017-06-18T09:56:19.557Z,56.14
2017-06-18T09:58:47.057Z,56.58
2017-06-18T10:01:14.599Z,56.69
2017-06-18T10:03:42.109Z,57.06
2017-06-18T10:06:10.102Z,56.55
2017-06-18T10:08:38.513Z,56.81
2017-06-18T10:11:06.435Z,56.91
2017-06-18T10:13:34.038Z,56.74
2017-06-18T10:16:01.609Z,57.74
2017-06-18T10:18:29.157Z,58.11
2017-06-18T10:20:59.129Z,58.16
2017-06-18T10:23:28.127Z,60.06
2017-06-18T10:26:03.042Z,58.54
2017-06-18T10:28:30.686Z,61.25
2017-06-18T10:31:00.130Z,62.12
2017-06-18T10:33:33.908Z,62.03
2017-06-18T10:36:02.600Z,62.88
2017-06-18T10:38:30.898Z,63.33
2017-06-18T10:41:03.971Z,62.86
2017-06-18T10:43:31.688Z,62.12
2017-06-18T10:45:59.194Z,62.67
2017-06-18T10:48:26.813Z,63.51
2017-06-18T10:50:54.436Z,63.56
2017-06-18T10:53:21.937Z,62.63
2017-06-18T10:55:53.294Z,62.67
2017-06-18T10:58:20.932Z,62.29
2017-06-18T11:00:49.786Z,61.63
2017-06-18T11:03:17.685Z,60.19
2017-06-18T11:05:46.476Z,61.30
2017-06-18T11:08:14.773Z,59.92
2017-06-18T11:10:44.335Z,59.62
2017-06-18T11:13:14.257Z,61.27
2017-06-18T11:15:41.866Z,61.02
2017-06-18T11:18:10.618Z,59.73
2017-06-18T11:20:39.638Z,60.09
2017-06-18T11:23:07.312Z,60.61
2017-06-18T11:25:37.143Z,59.61
2017-06-18T11:28:11.876Z,59.30
2017-06-18T11:30:43.921Z,58.41
2017-06-18T11:33:14.735Z,58.10
2017-06-18T11:35:43.996Z,56.75
2017-06-18T11:38:24.066Z,56.39
2017-06-18T11:41:01.929Z,56.65
2017-06-18T11:46:07.617Z,56.86
2017-06-18T11:48:35.553Z,55.15
2017-06-18T11:51:03.086Z,54.58
2017-06-18T11:53:30.632Z,55.44
2017-06-18T11:55:58.211Z,56.74
2017-06-18T11:58:26.781Z,57.55
2017-06-18T12:00:54.508Z,57.37
2017-06-18T12:03:29.728Z,58.29
2017-06-18T12:06:06.093Z,58.22
2017-06-18T12:08:34.255Z,59.51
2017-06-18T12:11:04.647Z,58.81
2017-06-18T12:13:32.296Z,60.35
2017-06-18T12:15:59.883Z,59.75
2017-06-18T12:19:04.880Z,60.59
2017-06-18T12:21:32.898Z,59.71
2017-06-18T12:24:00.646Z,59.38
2017-06-18T12:26:29.545Z,58.94
2017-06-18T12:28:58.912Z,58.82
2017-06-18T12:31:30.359Z,57.87
2017-06-18T12:33:58.011Z,59.65
2017-06-18T12:36:29.490Z,58.39
2017-06-18T12:39:00.562Z,58.38
2017-06-18T12:41:28.105Z,59.50
2017-06-18T12:44:00.574Z,57.65
2017-06-18T12:46:38.543Z,58.28
2017-06-18T12:49:14.526Z,57.41
2017-06-18T12:51:42.539Z,56.18
2017-06-18T12:54:10.375Z,56.31
2017-06-18T12:56:44.497Z,55.32
2017-06-18T12:59:12.186Z,55.82
2017-06-18T13:01:39.784Z,56.00
2017-06-18T13:04:12.863Z,56.15
2017-06-18T13:06:41.203Z,57.46
2017-06-18T13:09:10.091Z,57.56
2017-06-18T13:11:43.370Z,57.81
2017-06-18T13:14:11.207Z,56.97
2017-06-18T13:16:39.722Z,56.74
2017-06-18T13:19:07.295Z,57.78
2017-06-18T13:21:42.367Z,56.80
2017-06-18T13:24:09.912Z,56.44
2017-06-18T13:26:37.449Z,57.72
2017-06-18T13:29:11.960Z,58.68
2017-06-18T13:31:39.577Z,59.27
2017-06-18T13:34:13.302Z,58.63
2017-06-18T13:36:41.530Z,59.07
2017-06-18T13:39:11.448Z,59.03
2017-06-18T13:41:39.361Z,59.05
2017-06-18T13:44:12.031Z,59.92
2017-06-18T13:46:39.732Z,59.58
2017-06-18T13:49:11.750Z,58.83
2017-06-18T13:51:39.265Z,59.13
2017-06-18T13:54:07.017Z,59.32
2017-06-18T13:56:37.601Z,59.31
2017-06-18T13:59:05.433Z,57.88
2017-06-18T14:01:33.622Z,56.90
2017-06-18T14:04:06.293Z,57.81
2017-06-18T14:06:35.261Z,56.86
2017-06-18T14:09:02.947Z,58.53
2017-06-18T14:11:32.213Z,58.23
2017-06-18T14:13:59.853Z,58.72
2017-06-18T14:16:32.376Z,58.06
2017-06-18T14:46:15.184Z,60.24
2017-06-18T14:48:48.386Z,59.57
2017-06-18T14:51:19.792Z,59.36
2017-06-18T14:53:47.293Z,59.95
2017-06-18T14:56:14.789Z,57.71
2017-06-18T14:58:52.861Z,58.74
2017-06-18T15:01:20.401Z,58.82
2017-06-18T15:03:49.923Z,58.54
2017-06-18T15:06:20.379Z,59.40
2017-06-18T15:08:48.117Z,58.08
2017-06-18T15:11:18.649Z,59.02
2017-06-18T15:13:46.473Z,58.55
2017-06-18T15:16:14.062Z,58.32
2017-06-18T15:18:42.339Z,58.23
2017-06-18T15:21:09.999Z,59.34
2017-06-18T15:23:37.513Z,58.86
2017-06-18T15:26:10.502Z,59.53
2017-06-18T15:28:38.136Z,58.38
2017-06-18T15:31:05.742Z,58.52
2017-06-18T15:33:33.500Z,58.51
2017-06-18T15:36:01.007Z,59.09
2017-06-18T15:38:28.589Z,57.90
2017-06-18T15:40:56.448Z,58.92
2017-06-18T15:43:23.949Z,57.52
2017-06-18T15:45:51.584Z,58.88
2017-06-18T15:48:19.169Z,59.15
2017-06-18T15:50:46.720Z,59.00
2017-06-18T15:53:14.338Z,58.95
2017-06-18T15:55:41.949Z,58.96
2017-06-18T15:58:09.467Z,59.45
2017-06-18T16:00:37.123Z,60.00
2017-06-18T16:03:04.653Z,60.30
2017-06-18T16:05:32.459Z,59.25
2017-06-18T16:08:04.483Z,59.76
2017-06-18T16:15:22.735Z,62.01
2017-06-18T16:17:50.765Z,62.86
2017-06-18T16:20:18.340Z,61.63
2017-06-18T16:22:46.035Z,61.32
2017-06-18T16:25:13.804Z,61.12
2017-06-18T16:27:41.312Z,62.03
2017-06-18T16:30:09.718Z,61.81
2017-06-18T16:32:37.212Z,61.32
2017-06-18T16:35:05.186Z,61.52
2017-06-18T16:37:33.056Z,61.44
2017-06-18T16:40:00.709Z,64.70
2017-06-18T16:42:28.249Z,64.89
2017-06-18T16:44:56.813Z,66.26
2017-06-18T16:47:27.758Z,64.78
2017-06-18T16:49:59.783Z,64.69
2017-06-18T16:52:27.368Z,65.07
2017-06-18T16:54:55.546Z,64.74
2017-06-18T16:57:23.316Z,64.83
2017-06-18T16:59:50.857Z,65.53
2017-06-18T17:02:18.632Z,66.44
2017-06-18T17:04:46.359Z,65.56
2017-06-18T17:07:13.925Z,66.46
2017-06-18T17:09:41.837Z,67.30
2017-06-18T17:12:09.423Z,67.34
2017-06-18T17:14:37.006Z,66.67
2017-06-18T17:17:04.591Z,67.42
2017-06-18T17:19:32.211Z,66.87
2017-06-18T17:22:05.719Z,67.43
2017-06-18T17:24:33.382Z,68.57
2017-06-18T17:27:00.996Z,68.20
2017-06-18T17:29:28.662Z,68.17
2017-06-18T17:31:57.173Z,67.41
2017-06-18T17:34:24.946Z,67.02
2017-06-18T17:36:52.511Z,66.92
2017-06-18T17:39:20.144Z,66.40
2017-06-18T17:41:47.780Z,67.01
2017-06-18T17:44:15.364Z,67.37
2017-06-18T17:46:43.028Z,67.01
2017-06-18T17:49:10.647Z,66.83
2017-06-18T17:51:38.294Z,67.97
2017-06-18T17:54:09.297Z,67.39
2017-06-18T17:56:36.945Z,67.18
2017-06-18T17:59:04.587Z,68.12
2017-06-18T18:01:32.297Z,67.42
2017-06-18T18:04:03.681Z,67.86
2017-06-18T18:06:31.338Z,68.47
2017-06-18T18:09:00.756Z,68.92
2017-06-18T18:11:28.504Z,69.82
2017-06-18T18:13:56.234Z,68.64
2017-06-18T18:16:23.994Z,68.14
2017-06-18T18:18:55.783Z,68.83
2017-06-18T18:21:26.053Z,69.46
2017-06-18T18:24:02.965Z,69.25
2017-06-18T18:26:35.058Z,68.71
2017-06-18T18:29:02.874Z,68.82
2017-06-18T18:34:12.259Z,69.95
2017-06-18T18:36:42.452Z,71.19
2017-06-18T18:39:14.561Z,71.27
2017-06-18T18:41:46.231Z,69.73
2017-06-18T18:44:32.697Z,71.06
2017-06-18T18:47:03.086Z,71.52
2017-06-18T18:49:35.529Z,71.74
2017-06-18T18:52:08.730Z,70.50
2017-06-18T18:54:38.422Z,71.29
2017-06-18T18:57:07.843Z,71.63
2017-06-18T18:59:37.561Z,70.60
2017-06-18T19:02:07.994Z,71.71
2017-06-18T19:04:38.121Z,72.50
2017-06-18T19:07:08.884Z,72.86
2017-06-18T19:09:39.716Z,71.91
2017-06-18T19:12:07.605Z,70.62
2017-06-18T19:14:36.367Z,71.00
2017-06-18T19:17:04.100Z,71.78
2017-06-18T19:19:31.793Z,71.19
2017-06-18T19:22:01.387Z,71.82
2017-06-18T19:24:36.835Z,72.67
2017-06-18T19:27:07.992Z,72.84
2017-06-18T19:29:38.160Z,71.95
2017-06-18T19:32:11.928Z,71.45
2017-06-18T19:34:43.186Z,70.81
2017-06-18T19:37:15.238Z,70.86
2017-06-18T19:39:45.846Z,71.53
2017-06-18T19:42:17.555Z,72.61
2017-06-18T19:44:49.960Z,73.34
2017-06-18T19:47:40.346Z,72.69
2017-06-18T19:50:09.493Z,71.36
2017-06-18T19:52:54.157Z,71.27
2017-06-18T19:58:15.668Z,71.36
2017-06-18T20:00:43.382Z,71.48
2017-06-18T20:06:42.897Z,71.42
2017-06-18T20:09:15.446Z,70.86
2017-06-18T20:11:50.305Z,71.54
2017-06-18T20:14:20.272Z,71.54
2017-06-18T20:16:48.568Z,71.29
2017-06-18T20:19:19.655Z,70.93
2017-06-18T20:21:47.512Z,72.57
2017-06-18T20:24:16.591Z,72.19
2017-06-18T20:26:44.491Z,71.78
2017-06-18T20:29:13.386Z,71.95
2017-06-18T20:31:41.827Z,71.36
2017-06-18T20:34:09.402Z,70.90
2017-06-18T20:36:36.982Z,72.00
2017-06-18T20:39:05.440Z,71.44
2017-06-18T20:41:32.945Z,71.25
2017-06-18T20:44:00.560Z,71.72
2017-06-18T20:46:31.129Z,71.88
2017-06-18T20:48:59.317Z,71.61
2017-06-18T20:51:27.172Z,71.70
2017-06-18T20:53:55.676Z,73.35
2017-06-18T20:56:23.707Z,73.43
2017-06-18T20:58:51.632Z,72.88
2017-06-18T21:01:19.376Z,74.61
2017-06-18T21:03:47.383Z,73.37
2017-06-18T21:06:15.267Z,74.27
2017-06-18T21:08:45.475Z,73.40
2017-06-18T21:11:18.778Z,73.52
2017-06-18T21:13:48.059Z,73.90
2017-06-18T21:16:15.769Z,72.96
2017-06-18T21:18:44.867Z,72.53
2017-06-18T21:21:13.911Z,72.51
2017-06-18T21:23:56.572Z,72.62
2017-06-18T21:26:29.444Z,72.66
2017-06-18T21:29:03.060Z,72.94
2017-06-18T21:31:34.626Z,73.66
2017-06-18T21:34:09.634Z,73.56
2017-06-18T21:36:47.028Z,73.87
2017-06-18T21:39:21.115Z,74.34
2017-06-18T21:41:55.025Z,74.29
2017-06-18T21:44:26.740Z,73.57
2017-06-18T21:46:55.578Z,73.58
2017-06-18T21:49:23.258Z,74.19
2017-06-18T21:52:10.936Z,73.06
2017-06-18T21:54:44.694Z,72.91
2017-06-18T21:57:19.425Z,72.03
2017-06-18T21:59:51.877Z,72.27
2017-06-18T22:02:21.763Z,72.34
2017-06-18T22:04:52.487Z,72.42
2017-06-18T22:07:28.477Z,73.54
2017-06-18T22:09:59.633Z,72.39
2017-06-18T22:12:33.214Z,71.97
2017-06-18T22:15:03.511Z,72.07
2017-06-18T22:17:36.984Z,73.08
2017-06-18T22:20:13.189Z,72.59
2017-06-18T22:22:49.512Z,72.37
2017-06-18T22:28:01.178Z,72.17
2017-06-18T22:30:36.421Z,72.15
2017-06-18T22:33:04.109Z,72.12
2017-06-18T22:35:31.645Z,71.59
2017-06-18T22:37:59.201Z,72.32
2017-06-18T22:40:27.618Z,72.23
2017-06-18T22:42:59.273Z,72.55
2017-06-18T22:45:29.427Z,72.33
2017-06-18T22:50:36.739Z,72.60
2017-06-18T22:53:09.855Z,72.71
2017-06-18T22:55:51.415Z,72.49
2017-06-18T22:58:26.217Z,72.12
2017-06-18T23:01:15.349Z,71.91
2017-06-18T23:03:48.406Z,72.39
2017-06-18T23:06:25.099Z,72.21
2017-06-18T23:08:57.544Z,72.66
2017-06-18T23:11:25.544Z,72.01
2017-06-18T23:13:57.034Z,71.82
2017-06-18T23:16:25.494Z,72.16
2017-06-18T23:18:53.224Z,72.06
2017-06-18T23:21:27.651Z,72.59
2017-06-18T23:23:59.959Z,72.15
2017-06-18T23:26:36.603Z,71.97
2017-06-18T23:29:23.430Z,71.99
2017-06-18T23:31:57.897Z,72.33
2017-06-18T23:34:26.001Z,72.41
2017-06-18T23:37:01.478Z,73.04
2017-06-18T23:39:35.273Z,72.82
2017-06-18T23:42:09.993Z,73.70
2017-06-18T23:44:54.831Z,75.19
2017-06-18T23:47:38.754Z,73.52
2017-06-18T23:50:20.170Z,72.35
2017-06-18T23:56:09.705Z,72.87
2017-06-18T23:58:38.254Z,73.48
